createdAt,value
2023-08-05T00:00:51.974Z,100160.66
2023-08-05T00:03:28.626Z,100156.88
2023-08-05T00:05:57.347Z,100153.90
2023-08-05T00:08:25.983Z,100151.65
2023-08-05T00:10:54.854Z,100151.57
2023-08-05T00:13:23.366Z,100151.86
2023-08-05T00:15:52.506Z,100150.67
2023-08-05T00:18:21.162Z,100148.84
2023-08-05T00:20:50.976Z,100149.74
2023-08-05T00:23:20.697Z,100145.73
2023-08-05T00:25:49.230Z,100145.39
2023-08-05T00:28:17.776Z,100143.45
2023-08-05T00:30:46.305Z,100138.45
2023-08-05T00:33:14.873Z,100139.74
2023-08-05T00:35:43.405Z,100141.80
2023-08-05T00:38:11.946Z,100137.65
2023-08-05T00:40:42.369Z,100132.33
2023-08-05T00:43:10.903Z,100130.97
2023-08-05T00:45:39.574Z,100125.25
2023-08-05T00:48:08.386Z,100129.23
2023-08-05T00:50:37.701Z,100131.20
2023-08-05T00:53:06.713Z,100127.92
2023-08-05T00:55:35.278Z,100127.53
2023-08-05T00:58:04.420Z,100124.11
2023-08-05T01:00:32.981Z,100118.80
2023-08-05T01:03:01.823Z,100114.91
2023-08-05T01:05:32.480Z,100115.80
2023-08-05T01:08:01.614Z,100110.42
2023-08-05T01:10:30.597Z,100110.38
2023-08-05T01:12:59.153Z,100110.66
2023-08-05T01:15:27.944Z,100106.17
2023-08-05T01:17:58.220Z,100108.29
2023-08-05T01:20:45.124Z,100112.09
2023-08-05T01:23:40.905Z,100110.20
2023-08-05T01:26:10.980Z,100106.38
2023-08-05T01:28:39.894Z,100107.16
2023-08-05T01:31:10.886Z,100100.96
2023-08-05T01:33:39.873Z,100103.44
2023-08-05T01:36:08.377Z,100102.09
2023-08-05T01:38:36.921Z,100100.38
2023-08-05T01:41:05.753Z,100101.02
2023-08-05T01:43:35.130Z,100105.73
2023-08-05T01:46:03.903Z,100105.00
2023-08-05T01:48:32.439Z,100097.50
2023-08-05T01:51:01.122Z,100096.85
2023-08-05T01:53:29.635Z,100096.11
2023-08-05T01:55:58.278Z,100091.20
2023-08-05T01:58:26.827Z,100098.61
2023-08-05T02:00:55.657Z,100100.17
2023-08-05T02:03:25.198Z,100100.96
2023-08-05T02:05:54.085Z,100104.73
2023-08-05T02:08:22.747Z,100106.44
2023-08-05T02:10:51.235Z,100109.80
2023-08-05T02:13:19.877Z,100110.83
2023-08-05T02:15:48.415Z,100107.42
2023-08-05T02:18:16.980Z,100106.95
2023-08-05T02:20:45.522Z,100110.84
2023-08-05T02:23:14.029Z,100111.89
2023-08-05T02:25:42.610Z,100116.59
2023-08-05T02:28:11.188Z,100118.85
2023-08-05T02:30:39.861Z,100115.56
2023-08-05T02:33:08.569Z,100116.38
2023-08-05T02:35:37.160Z,100116.90
2023-08-05T02:38:05.743Z,100115.59
2023-08-05T02:40:34.867Z,100113.23
2023-08-05T02:43:03.512Z,100113.83
2023-08-05T02:45:32.058Z,100114.72
2023-08-05T02:48:00.694Z,100116.36
2023-08-05T02:50:29.340Z,100113.78
2023-08-05T02:52:57.912Z,100112.92
2023-08-05T02:55:26.443Z,100112.55
2023-08-05T02:57:55.033Z,100111.85
2023-08-05T03:00:23.625Z,100117.90
2023-08-05T03:02:52.208Z,100116.70
2023-08-05T03:05:20.981Z,100121.16
2023-08-05T03:07:49.864Z,100117.65
2023-08-05T03:10:18.742Z,100121.21
2023-08-05T03:12:47.825Z,100123.84
2023-08-05T03:15:16.620Z,100126.48
2023-08-05T03:17:45.363Z,100128.05
2023-08-05T03:20:28.187Z,100126.71
2023-08-05T03:23:00.179Z,100131.80
2023-08-05T03:25:29.388Z,100128.23
2023-08-05T03:28:00.983Z,100132.75
2023-08-05T03:30:30.263Z,100129.98
2023-08-05T03:32:59.187Z,100130.19
2023-08-05T03:35:29.751Z,100133.05
2023-08-05T03:37:59.112Z,100133.70
2023-08-05T03:40:27.830Z,100131.13
2023-08-05T03:42:56.385Z,100133.85
2023-08-05T03:45:24.977Z,100133.41
2023-08-05T03:47:55.228Z,100136.80
2023-08-05T03:50:24.736Z,100141.77
2023-08-05T03:52:54.690Z,100147.11
2023-08-05T03:55:23.286Z,100144.77
2023-08-05T03:57:52.969Z,100145.10
2023-08-05T04:00:21.557Z,100141.23
2023-08-05T04:02:50.105Z,100138.45
2023-08-05T04:05:19.014Z,100136.13
2023-08-05T04:07:48.225Z,100134.66
2023-08-05T04:10:20.906Z,100131.59
2023-08-05T04:12:49.781Z,100128.63
2023-08-05T04:15:20.055Z,100130.87
2023-08-05T04:17:49.418Z,100130.48
2023-08-05T04:20:19.308Z,100129.75
2023-08-05T04:22:50.428Z,100128.06
2023-08-05T04:25:19.207Z,100124.59
2023-08-05T04:27:47.846Z,100122.08
2023-08-05T04:30:16.412Z,100114.40
2023-08-05T04:32:45.052Z,100117.31
2023-08-05T04:35:13.624Z,100118.12
2023-08-05T04:37:42.147Z,100118.15
2023-08-05T04:40:12.198Z,100122.16
2023-08-05T04:42:40.748Z,100131.08
2023-08-05T04:45:10.519Z,100130.98
2023-08-05T04:47:39.156Z,100139.58
2023-08-05T04:50:08.307Z,100136.18
2023-08-05T04:52:36.872Z,100138.67
2023-08-05T04:55:13.009Z,100148.02
2023-08-05T04:57:41.655Z,100150.42
2023-08-05T05:00:11.385Z,100155.11
2023-08-05T05:02:39.988Z,100150.78
2023-08-05T05:05:09.047Z,100150.17
2023-08-05T05:07:37.626Z,100148.79
2023-08-05T05:10:06.866Z,100146.34
2023-08-05T05:12:35.432Z,100154.27
2023-08-05T05:15:04.467Z,100148.98
2023-08-05T05:17:37.166Z,100147.20
2023-08-05T05:20:06.731Z,100148.95
2023-08-05T05:22:35.266Z,100143.58
2023-08-05T05:25:06.518Z,100145.77
2023-08-05T05:27:36.251Z,100145.58
2023-08-05T05:30:05.326Z,100149.30
2023-08-05T05:32:33.935Z,100150.53
2023-08-05T05:35:02.525Z,100153.20
2023-08-05T05:37:31.160Z,100156.59
2023-08-05T05:39:59.701Z,100160.30
2023-08-05T05:42:29.614Z,100163.52
2023-08-05T05:44:58.167Z,100162.16
2023-08-05T05:47:26.782Z,100163.33
2023-08-05T05:49:55.396Z,100159.73
2023-08-05T05:52:23.970Z,100159.46
2023-08-05T05:54:52.561Z,100159.01
2023-08-05T05:57:23.765Z,100166.22
2023-08-05T05:59:52.275Z,100166.91
2023-08-05T06:02:21.072Z,100165.67
2023-08-05T06:04:49.845Z,100167.37
2023-08-05T06:07:18.384Z,100167.02
2023-08-05T06:09:46.873Z,100168.63
2023-08-05T06:12:19.204Z,100170.21
2023-08-05T06:14:47.766Z,100167.06
2023-08-05T06:17:16.359Z,100171.20
2023-08-05T06:19:45.212Z,100167.53
2023-08-05T06:22:14.145Z,100166.24
2023-08-05T06:24:42.633Z,100167.55
2023-08-05T06:27:11.264Z,100168.91
2023-08-05T06:29:39.849Z,100164.40
2023-08-05T06:32:09.098Z,100168.09
2023-08-05T06:34:37.606Z,100169.77
2023-08-05T06:37:06.462Z,100170.79
2023-08-05T06:39:35.106Z,100173.48
2023-08-05T06:42:04.149Z,100175.79
2023-08-05T06:44:38.601Z,100170.95
2023-08-05T06:47:07.283Z,100168.02
2023-08-05T06:49:36.619Z,100159.49
2023-08-05T06:52:06.021Z,100156.32
2023-08-05T06:54:34.652Z,100156.48
2023-08-05T06:57:03.159Z,100161.24
2023-08-05T06:59:31.729Z,100165.59
2023-08-05T07:02:01.861Z,100164.45
2023-08-05T07:04:30.580Z,100165.48
2023-08-05T07:06:59.665Z,100168.26
2023-08-05T07:09:28.202Z,100173.73
2023-08-05T07:11:56.720Z,100175.83
2023-08-05T07:14:26.333Z,100180.73
2023-08-05T07:16:54.844Z,100177.52
2023-08-05T07:19:23.353Z,100171.19
2023-08-05T07:21:52.929Z,100166.38
2023-08-05T07:24:22.147Z,100163.08
2023-08-05T07:26:50.730Z,100166.65
2023-08-05T07:29:19.239Z,100166.05
2023-08-05T07:31:47.797Z,100167.41
2023-08-05T07:34:17.270Z,100163.12
2023-08-05T07:36:46.211Z,100167.55
2023-08-05T07:39:14.802Z,100164.69
2023-08-05T07:41:43.516Z,100167.95
2023-08-05T07:44:13.655Z,100168.30
2023-08-05T07:46:43.056Z,100164.20
2023-08-05T07:49:13.316Z,100164.39
2023-08-05T07:51:41.806Z,100161.41
2023-08-05T07:54:10.354Z,100162.48
2023-08-05T07:56:40.661Z,100162.88
2023-08-05T07:59:09.366Z,100162.11
2023-08-05T08:01:40.269Z,100158.03
2023-08-05T08:04:10.202Z,100156.52
2023-08-05T08:06:38.852Z,100152.00
2023-08-05T08:09:07.393Z,100148.38
2023-08-05T08:11:35.972Z,100145.25
2023-08-05T08:14:05.879Z,100145.63
2023-08-05T08:16:34.414Z,100148.70
2023-08-05T08:19:05.934Z,100148.58
2023-08-05T08:21:34.486Z,100151.54
2023-08-05T08:24:03.028Z,100153.51
2023-08-05T08:26:31.492Z,100155.67
2023-08-05T08:29:00.108Z,100164.00
2023-08-05T08:31:31.481Z,100161.30
2023-08-05T08:34:00.052Z,100159.55
2023-08-05T08:36:28.564Z,100153.41
2023-08-05T08:38:57.185Z,100147.45
2023-08-05T08:41:27.283Z,100149.36
2023-08-05T08:43:57.252Z,100142.81
2023-08-05T08:46:26.345Z,100138.91
2023-08-05T08:48:56.022Z,100134.03
2023-08-05T08:51:24.943Z,100136.73
2023-08-05T08:53:53.535Z,100146.73
2023-08-05T08:56:22.054Z,100139.50
2023-08-05T08:58:50.599Z,100140.17
2023-08-05T09:01:20.237Z,100140.05
2023-08-05T09:03:53.481Z,100131.63
2023-08-05T09:06:27.257Z,100130.52
2023-08-05T09:08:56.321Z,100129.69
2023-08-05T09:11:25.039Z,100131.70
2023-08-05T09:13:54.822Z,100137.02
2023-08-05T09:16:24.689Z,100131.41
2023-08-05T09:18:56.774Z,100126.76
2023-08-05T09:21:29.510Z,100122.42
2023-08-05T09:23:58.763Z,100116.88
2023-08-05T09:26:31.972Z,100115.23
2023-08-05T09:29:01.313Z,100117.00
2023-08-05T09:31:30.460Z,100114.91
2023-08-05T09:33:59.067Z,100112.45
2023-08-05T09:36:32.318Z,100111.78
2023-08-05T09:39:11.748Z,100111.79
2023-08-05T09:41:43.759Z,100105.48
2023-08-05T09:44:13.281Z,100104.85
2023-08-05T09:46:49.192Z,100106.69
2023-08-05T09:49:19.875Z,100111.16
2023-08-05T09:51:50.322Z,100101.23
2023-08-05T09:54:29.474Z,100099.48
2023-08-05T09:57:00.770Z,100094.52
2023-08-05T09:59:29.718Z,100093.89
2023-08-05T10:01:58.343Z,100098.35
2023-08-05T10:04:29.257Z,100093.02
2023-08-05T10:06:58.580Z,100089.12
2023-08-05T10:09:27.895Z,100088.92
2023-08-05T10:11:56.824Z,100083.21
2023-08-05T10:14:29.307Z,100075.17
2023-08-05T10:16:58.309Z,100073.52
2023-08-05T10:19:32.276Z,100069.52
2023-08-05T10:22:13.180Z,100064.79
2023-08-05T10:25:01.765Z,100053.47
2023-08-05T10:27:46.232Z,100044.03
2023-08-05T10:30:18.295Z,100050.96
2023-08-05T10:32:57.811Z,100050.98
2023-08-05T10:35:31.664Z,100046.85
2023-08-05T10:38:17.789Z,100044.36
2023-08-05T10:40:57.631Z,100049.00
2023-08-05T10:43:32.738Z,100052.24
2023-08-05T10:46:07.642Z,100049.77
2023-08-05T10:48:43.756Z,100048.64
2023-08-05T10:51:17.596Z,100039.61
2023-08-05T10:54:07.058Z,100039.23
2023-08-05T10:56:38.939Z,100026.09
2023-08-05T10:59:07.826Z,100016.96
2023-08-05T11:02:00.111Z,100017.57
2023-08-05T11:04:30.742Z,100025.31
2023-08-05T11:07:02.433Z,100031.73
2023-08-05T11:09:35.272Z,100023.14
2023-08-05T11:12:04.121Z,100016.66
2023-08-05T11:14:33.727Z,100015.02
2023-08-05T11:17:08.734Z,100012.86
2023-08-05T11:19:58.013Z,100010.09
2023-08-05T11:22:28.881Z,99999.73
2023-08-05T11:25:02.546Z,99992.33
2023-08-05T11:27:37.504Z,99995.23
2023-08-05T11:30:18.308Z,99992.88
2023-08-05T11:33:00.100Z,99983.59
2023-08-05T11:35:28.767Z,99978.77
2023-08-05T11:37:58.276Z,99978.30
2023-08-05T11:40:27.106Z,99978.74
2023-08-05T11:42:57.158Z,99973.98
2023-08-05T11:45:25.865Z,99975.50
2023-08-05T11:47:54.518Z,99971.11
2023-08-05T11:50:37.280Z,99969.51
2023-08-05T11:53:08.738Z,99965.02
2023-08-05T11:55:38.424Z,99957.66
2023-08-05T11:58:07.990Z,99957.02
2023-08-05T12:00:36.727Z,99964.98
2023-08-05T12:03:06.505Z,99957.04
2023-08-05T12:05:35.265Z,99954.77
2023-08-05T12:08:04.218Z,99956.78
2023-08-05T12:10:32.918Z,99946.62
2023-08-05T12:13:06.267Z,99941.27
2023-08-05T12:15:34.862Z,99942.45
2023-08-05T12:18:06.428Z,99940.44
2023-08-05T12:20:37.564Z,99936.25
2023-08-05T12:23:08.989Z,99938.59
2023-08-05T12:25:37.547Z,99929.32
2023-08-05T12:28:06.813Z,99926.83
2023-08-05T12:30:35.644Z,99917.42
2023-08-05T12:33:06.642Z,99919.84
2023-08-05T12:35:36.752Z,99921.70
2023-08-05T12:38:05.258Z,99919.61
2023-08-05T12:40:33.947Z,99912.98
2023-08-05T12:43:02.457Z,99914.38
2023-08-05T12:45:31.019Z,99905.83
2023-08-05T12:47:59.668Z,99900.65
2023-08-05T12:50:28.401Z,99909.65
2023-08-05T12:52:56.989Z,99900.84
2023-08-05T12:55:25.512Z,99900.45
2023-08-05T12:57:54.022Z,99896.44
2023-08-05T13:00:22.679Z,99893.00
2023-08-05T13:02:51.259Z,99883.61
2023-08-05T13:05:19.853Z,99881.64
2023-08-05T13:07:48.349Z,99879.66
2023-08-05T13:10:16.824Z,99875.13
2023-08-05T13:12:45.306Z,99868.33
2023-08-05T13:15:13.902Z,99856.48
2023-08-05T13:17:42.533Z,99857.81
2023-08-05T13:20:11.466Z,99854.23
2023-08-05T13:22:40.102Z,99853.19
2023-08-05T13:25:09.025Z,99854.48
2023-08-05T13:27:37.597Z,99845.48
2023-08-05T13:30:07.243Z,99838.09
2023-08-05T13:32:35.752Z,99838.14
2023-08-05T13:35:04.622Z,99828.89
2023-08-05T13:37:35.288Z,99824.19
2023-08-05T13:40:04.745Z,99821.52
2023-08-05T13:42:33.321Z,99816.95
2023-08-05T13:45:01.852Z,99814.24
2023-08-05T13:47:30.503Z,99815.52
2023-08-05T13:49:59.032Z,99807.59
2023-08-05T13:52:27.551Z,99808.71
2023-08-05T13:54:57.149Z,99804.56
2023-08-05T13:57:25.737Z,99806.62
2023-08-05T13:59:54.481Z,99800.46
2023-08-05T14:02:23.043Z,99796.27
2023-08-05T14:04:51.665Z,99791.15
2023-08-05T14:07:20.176Z,99793.77
2023-08-05T14:09:48.740Z,99790.28
2023-08-05T14:12:17.276Z,99781.30
2023-08-05T14:14:45.880Z,99776.48
2023-08-05T14:17:14.326Z,99769.96
2023-08-05T14:19:42.951Z,99773.38
2023-08-05T14:22:11.984Z,99773.48
2023-08-05T14:24:40.818Z,99773.04
2023-08-05T14:27:09.296Z,99767.79
2023-08-05T14:29:37.810Z,99765.33
2023-08-05T14:32:07.063Z,99763.75
2023-08-05T14:34:35.565Z,99761.95
2023-08-05T14:37:04.279Z,99760.66
2023-08-05T14:39:33.676Z,99757.42
2023-08-05T14:42:02.213Z,99757.09
2023-08-05T14:44:30.924Z,99758.88
2023-08-05T14:46:59.481Z,99757.33
2023-08-05T14:49:28.019Z,99753.55
2023-08-05T14:51:56.551Z,99757.81
2023-08-05T14:54:25.140Z,99755.70
2023-08-05T14:56:54.043Z,99752.86
2023-08-05T14:59:22.544Z,99748.16
2023-08-05T15:01:51.370Z,99752.27
2023-08-05T15:04:20.063Z,99747.44
2023-08-05T15:06:48.602Z,99747.21
2023-08-05T15:09:17.378Z,99741.52
2023-08-05T15:11:45.933Z,99742.59
2023-08-05T15:14:16.254Z,99741.33
2023-08-05T15:16:44.836Z,99741.27
2023-08-05T15:19:13.302Z,99746.05
2023-08-05T15:21:41.947Z,99741.30
2023-08-05T15:24:10.620Z,99742.27
2023-08-05T15:26:39.202Z,99738.17
2023-08-05T15:29:07.771Z,99738.34
2023-08-05T15:31:36.380Z,99740.14
2023-08-05T15:34:04.941Z,99740.60
2023-08-05T15:36:33.451Z,99734.65
2023-08-05T15:39:01.994Z,99737.23
2023-08-05T15:41:31.598Z,99736.09
2023-08-05T15:44:00.181Z,99734.69
2023-08-05T15:46:31.782Z,99733.14
2023-08-05T15:49:00.297Z,99728.95
2023-08-05T15:51:29.177Z,99730.38
2023-08-05T15:53:57.748Z,99737.08
2023-08-05T15:56:28.348Z,99735.18
2023-08-05T15:58:56.894Z,99733.62
2023-08-05T16:01:25.724Z,99730.58
2023-08-05T16:03:54.794Z,99727.05
2023-08-05T16:06:23.338Z,99726.70
2023-08-05T16:08:51.848Z,99725.43
2023-08-05T16:11:21.487Z,99728.78
2023-08-05T16:13:49.970Z,99729.75
2023-08-05T16:16:19.507Z,99726.60
2023-08-05T16:18:48.174Z,99727.49
2023-08-05T16:21:22.616Z,99726.05
2023-08-05T16:23:58.715Z,99721.48
2023-08-05T16:26:27.538Z,99720.33
2023-08-05T16:28:56.085Z,99715.83
2023-08-05T16:31:25.430Z,99718.84
2023-08-05T16:33:54.206Z,99713.66
2023-08-05T16:36:23.811Z,99707.30
2023-08-05T16:38:52.376Z,99708.05
2023-08-05T16:41:22.789Z,99709.28
2023-08-05T16:43:52.202Z,99703.64
2023-08-05T16:46:22.595Z,99708.30
2023-08-05T16:48:54.906Z,99705.13
2023-08-05T16:51:23.398Z,99703.58
2023-08-05T16:53:51.945Z,99701.84
2023-08-05T16:56:20.558Z,99698.51
2023-08-05T16:58:49.396Z,99703.19
2023-08-05T17:01:22.072Z,99703.57
2023-08-05T17:03:50.607Z,99701.52
2023-08-05T17:06:19.150Z,99705.15
2023-08-05T17:08:47.713Z,99710.63
2023-08-05T17:11:16.293Z,99709.61
2023-08-05T17:13:44.842Z,99715.80
2023-08-05T17:16:13.515Z,99715.85
2023-08-05T17:18:42.104Z,99715.79
2023-08-05T17:21:10.703Z,99715.24
2023-08-05T17:23:39.250Z,99718.20
2023-08-05T17:26:07.775Z,99707.45
2023-08-05T17:28:36.305Z,99704.70
2023-08-05T17:31:06.604Z,99706.29
2023-08-05T17:33:35.211Z,99706.07
2023-08-05T17:36:03.990Z,99705.90
2023-08-05T17:38:32.738Z,99709.00
2023-08-05T17:41:01.269Z,99704.30
2023-08-05T17:43:29.737Z,99699.28
2023-08-05T17:46:00.006Z,99698.08
2023-08-05T17:48:28.614Z,99698.16
2023-08-05T17:50:59.344Z,99697.09
2023-08-05T17:53:27.983Z,99696.20
2023-08-05T17:55:56.523Z,99697.85
2023-08-05T17:58:25.303Z,99700.24
2023-08-05T18:00:54.284Z,99701.48
2023-08-05T18:03:22.917Z,99699.60
2023-08-05T18:05:59.004Z,99698.63
2023-08-05T18:08:32.851Z,99703.04
2023-08-05T18:11:01.374Z,99705.42
2023-08-05T18:13:29.852Z,99705.73
2023-08-05T18:15:58.388Z,99704.91
2023-08-05T18:18:26.904Z,99706.14
2023-08-05T18:20:55.521Z,99703.38
2023-08-05T18:23:24.119Z,99701.43
2023-08-05T18:25:52.683Z,99701.59
2023-08-05T18:28:21.519Z,99702.98
2023-08-05T18:30:50.012Z,99703.98
2023-08-05T18:33:18.612Z,99708.72
2023-08-05T18:35:49.477Z,99706.80
2023-08-05T18:38:18.535Z,99701.46
2023-08-05T18:40:47.052Z,99699.86
2023-08-05T18:43:15.627Z,99698.92
2023-08-05T18:45:44.194Z,99695.95
2023-08-05T18:48:12.750Z,99694.93
2023-08-05T18:50:41.244Z,99696.59
2023-08-05T18:53:10.560Z,99697.67
2023-08-05T18:55:39.147Z,99690.80
2023-08-05T18:58:07.677Z,99688.63
2023-08-05T19:00:41.642Z,99689.86
2023-08-05T19:03:10.810Z,99686.15
2023-08-05T19:05:39.639Z,99689.01
2023-08-05T19:08:08.408Z,99687.59
2023-08-05T19:10:43.287Z,99688.20
2023-08-05T19:13:12.031Z,99688.21
2023-08-05T19:15:40.512Z,99681.57
2023-08-05T19:18:12.225Z,99682.98
2023-08-05T19:20:40.995Z,99679.70
2023-08-05T19:23:11.428Z,99679.09
2023-08-05T19:25:39.977Z,99683.45
2023-08-05T19:28:08.658Z,99683.11
2023-08-05T19:30:38.199Z,99681.93
2023-08-05T19:33:06.855Z,99683.71
2023-08-05T19:35:35.410Z,99685.23
2023-08-05T19:38:03.981Z,99691.04
2023-08-05T19:40:32.462Z,99691.52
2023-08-05T19:43:03.046Z,99686.60
2023-08-05T19:45:31.750Z,99686.55
2023-08-05T19:48:00.420Z,99689.16
2023-08-05T19:50:29.005Z,99684.98
2023-08-05T19:52:57.538Z,99687.00
2023-08-05T19:55:30.372Z,99680.98
2023-08-05T19:57:58.873Z,99682.44
2023-08-05T20:00:27.987Z,99680.77
2023-08-05T20:02:57.477Z,99676.08
2023-08-05T20:05:26.173Z,99670.63
2023-08-05T20:07:54.738Z,99662.73
2023-08-05T20:10:23.358Z,99659.08
2023-08-05T20:12:51.829Z,99652.11
2023-08-05T20:15:20.303Z,99649.89
2023-08-05T20:17:48.859Z,99648.55
2023-08-05T20:20:17.686Z,99644.98
2023-08-05T20:22:46.253Z,99648.38
2023-08-05T20:25:14.977Z,99645.96
2023-08-05T20:27:43.608Z,99641.64
2023-08-05T20:30:12.298Z,99640.86
2023-08-05T20:32:41.470Z,99639.30
2023-08-05T20:35:10.924Z,99636.52
2023-08-05T20:37:39.429Z,99633.88
2023-08-05T20:40:09.651Z,99631.48
2023-08-05T20:42:38.286Z,99629.77
2023-08-05T20:45:08.739Z,99631.80
2023-08-05T20:47:37.341Z,99627.46
2023-08-05T20:50:07.319Z,99629.59
2023-08-05T20:52:36.143Z,99631.79
2023-08-05T20:55:05.422Z,99626.85
2023-08-05T20:57:34.367Z,99625.77
2023-08-05T21:00:03.891Z,99623.65
2023-08-05T21:02:32.487Z,99620.48
2023-08-05T21:05:03.246Z,99616.30
2023-08-05T21:07:32.382Z,99617.56
2023-08-05T21:10:00.916Z,99616.76
2023-08-05T21:12:29.440Z,99615.02
2023-08-05T21:14:58.005Z,99612.50
2023-08-05T21:17:26.618Z,99611.58
2023-08-05T21:19:55.276Z,99608.09
2023-08-05T21:22:23.764Z,99608.54
2023-08-05T21:24:52.469Z,99603.45
2023-08-05T21:27:21.131Z,99600.94
2023-08-05T21:29:49.824Z,99598.66
2023-08-05T21:32:19.852Z,99596.89
2023-08-05T21:34:48.395Z,99593.48
2023-08-05T21:37:16.918Z,99589.45
2023-08-05T21:39:47.172Z,99585.08
2023-08-05T21:42:15.740Z,99579.80
2023-08-05T21:44:44.491Z,99580.56
2023-08-05T21:47:13.165Z,99579.38
2023-08-05T21:49:41.889Z,99576.46
2023-08-05T21:52:10.670Z,99578.74
2023-08-05T21:54:39.224Z,99577.48
2023-08-05T21:57:08.094Z,99572.44
2023-08-05T21:59:36.656Z,99573.83
2023-08-05T22:02:05.808Z,99573.56
2023-08-05T22:04:34.743Z,99570.51
2023-08-05T22:07:03.327Z,99567.73
2023-08-05T22:09:31.868Z,99565.55
2023-08-05T22:12:05.144Z,99565.89
2023-08-05T22:14:33.686Z,99559.36
2023-08-05T22:17:03.174Z,99553.60
2023-08-05T22:19:31.759Z,99546.86
2023-08-05T22:22:00.285Z,99542.20
2023-08-05T22:24:41.140Z,99539.05
2023-08-05T22:27:10.927Z,99533.45
2023-08-05T22:29:39.515Z,99528.75
2023-08-05T22:32:08.580Z,99529.14
2023-08-05T22:34:37.318Z,99533.69
2023-08-05T22:37:06.448Z,99532.66
2023-08-05T22:40:03.267Z,99528.79
2023-08-05T22:42:31.798Z,99527.73
2023-08-05T22:45:02.276Z,99521.89
2023-08-05T22:47:30.694Z,99511.00
2023-08-05T22:49:59.486Z,99505.46
2023-08-05T22:52:27.937Z,99502.02
2023-08-05T22:54:56.243Z,99501.73
2023-08-05T22:57:24.683Z,99491.80
2023-08-05T22:59:53.337Z,99486.98
2023-08-05T23:02:21.889Z,99483.55
2023-08-05T23:04:52.124Z,99478.85
2023-08-05T23:07:20.766Z,99475.37
2023-08-05T23:09:52.322Z,99471.11
2023-08-05T23:12:23.844Z,99471.52
2023-08-05T23:14:52.870Z,99468.16
2023-08-05T23:17:21.425Z,99465.11
2023-08-05T23:19:50.006Z,99457.17
2023-08-05T23:22:18.981Z,99454.13
2023-08-05T23:24:47.876Z,99450.30
2023-08-05T23:27:16.475Z,99448.56
2023-08-05T23:29:44.963Z,99454.56
2023-08-05T23:32:13.712Z,99448.92
2023-08-05T23:34:42.266Z,99446.60
2023-08-05T23:37:10.774Z,99439.11
2023-08-05T23:39:39.324Z,99435.02
2023-08-05T23:42:07.929Z,99434.73
2023-08-05T23:44:36.583Z,99437.36
2023-08-05T23:47:06.680Z,99436.48
2023-08-05T23:49:35.596Z,99436.39
2023-08-05T23:52:04.696Z,99433.31
2023-08-05T23:54:33.479Z,99430.86
2023-08-05T23:57:02.174Z,99429.47
2023-08-05T23:59:30.796Z,99426.13
